sensor_id;sensor_type;location;lat;lon;timestamp;pressure;altitude;pressure_sealevel;temperature;humidity
70338;BME280;57757;53.198;19.646;2023-06-22T00:02:18;100243.05;;;21.65;57.96
70338;BME280;57757;53.198;19.646;2023-06-22T00:04:44;100243.32;;;21.61;58.08
70338;BME280;57757;53.198;19.646;2023-06-22T00:07:11;100243.38;;;21.57;58.11
70338;BME280;57757;53.198;19.646;2023-06-22T00:09:37;100244.67;;;21.54;58.13
70338;BME280;57757;53.198;19.646;2023-06-22T00:12:03;100247.23;;;21.50;58.10
70338;BME280;57757;53.198;19.646;2023-06-22T00:14:29;100248.04;;;21.46;58.06
70338;BME280;57757;53.198;19.646;2023-06-22T00:16:55;100249.77;;;21.41;58.17
70338;BME280;57757;53.198;19.646;2023-06-22T00:19:25;100248.39;;;21.35;58.31
70338;BME280;57757;53.198;19.646;2023-06-22T00:21:51;100252.00;;;21.31;58.37
70338;BME280;57757;53.198;19.646;2023-06-22T00:24:21;100251.42;;;21.27;58.39
70338;BME280;57757;53.198;19.646;2023-06-22T00:26:50;100247.82;;;21.23;58.42
70338;BME280;57757;53.198;19.646;2023-06-22T00:29:16;100247.16;;;21.19;58.57
70338;BME280;57757;53.198;19.646;2023-06-22T00:31:42;100245.77;;;21.16;58.57
70338;BME280;57757;53.198;19.646;2023-06-22T00:34:09;100247.02;;;21.14;58.62
70338;BME280;57757;53.198;19.646;2023-06-22T00:36:36;100252.59;;;21.12;58.76
70338;BME280;57757;53.198;19.646;2023-06-22T00:39:02;100266.73;;;21.09;58.78
70338;BME280;57757;53.198;19.646;2023-06-22T00:41:28;100268.65;;;21.04;58.65
70338;BME280;57757;53.198;19.646;2023-06-22T00:43:54;100272.02;;;20.96;58.72
70338;BME280;57757;53.198;19.646;2023-06-22T00:46:21;100272.38;;;20.88;58.92
70338;BME280;57757;53.198;19.646;2023-06-22T00:48:49;100270.27;;;20.80;58.89
70338;BME280;57757;53.198;19.646;2023-06-22T00:51:16;100273.93;;;20.72;59.00
70338;BME280;57757;53.198;19.646;2023-06-22T00:53:42;100275.45;;;20.65;59.19
70338;BME280;57757;53.198;19.646;2023-06-22T00:56:09;100271.80;;;20.61;59.25
70338;BME280;57757;53.198;19.646;2023-06-22T00:58:38;100274.92;;;20.57;59.30
70338;BME280;57757;53.198;19.646;2023-06-22T01:01:07;100272.36;;;20.52;59.37
70338;BME280;57757;53.198;19.646;2023-06-22T01:03:34;100268.16;;;20.48;59.54
70338;BME280;57757;53.198;19.646;2023-06-22T01:06:07;100266.73;;;20.46;59.43
70338;BME280;57757;53.198;19.646;2023-06-22T01:08:49;100270.55;;;20.44;59.65
70338;BME280;57757;53.198;19.646;2023-06-22T01:11:43;100273.08;;;20.43;59.72
70338;BME280;57757;53.198;19.646;2023-06-22T01:14:20;100266.34;;;20.41;59.57
70338;BME280;57757;53.198;19.646;2023-06-22T01:16:51;100268.65;;;20.41;59.75
70338;BME280;57757;53.198;19.646;2023-06-22T01:22:00;100270.95;;;20.38;59.71
70338;BME280;57757;53.198;19.646;2023-06-22T01:30:29;100273.36;;;20.31;59.91
70338;BME280;57757;53.198;19.646;2023-06-22T01:32:57;100269.59;;;20.29;60.01
70338;BME280;57757;53.198;19.646;2023-06-22T01:35:24;100273.84;;;20.25;59.90
70338;BME280;57757;53.198;19.646;2023-06-22T01:37:50;100269.83;;;20.22;60.04
70338;BME280;57757;53.198;19.646;2023-06-22T01:40:17;100269.90;;;20.18;59.99
70338;BME280;57757;53.198;19.646;2023-06-22T01:42:46;100270.45;;;20.15;60.18
70338;BME280;57757;53.198;19.646;2023-06-22T01:45:12;100268.54;;;20.12;60.15
70338;BME280;57757;53.198;19.646;2023-06-22T01:47:39;100266.44;;;20.08;60.08
70338;BME280;57757;53.198;19.646;2023-06-22T01:50:06;100261.88;;;20.05;60.27
70338;BME280;57757;53.198;19.646;2023-06-22T01:52:33;100265.58;;;20.02;60.25
70338;BME280;57757;53.198;19.646;2023-06-22T01:55:00;100272.09;;;19.99;60.26
70338;BME280;57757;53.198;19.646;2023-06-22T01:57:27;100266.93;;;19.97;60.36
70338;BME280;57757;53.198;19.646;2023-06-22T02:00:00;100262.51;;;19.94;60.42
70338;BME280;57757;53.198;19.646;2023-06-22T02:02:30;100267.55;;;19.93;60.56
70338;BME280;57757;53.198;19.646;2023-06-22T02:05:09;100271.20;;;19.91;60.57
70338;BME280;57757;53.198;19.646;2023-06-22T02:07:42;100272.89;;;19.89;60.58
70338;BME280;57757;53.198;19.646;2023-06-22T02:10:14;100274.27;;;19.87;60.74
70338;BME280;57757;53.198;19.646;2023-06-22T02:12:43;100278.79;;;19.85;60.76
70338;BME280;57757;53.198;19.646;2023-06-22T02:15:10;100286.38;;;19.82;60.79
70338;BME280;57757;53.198;19.646;2023-06-22T02:17:38;100281.74;;;19.80;60.71
70338;BME280;57757;53.198;19.646;2023-06-22T02:20:05;100287.30;;;19.79;60.77
70338;BME280;57757;53.198;19.646;2023-06-22T02:22:33;100290.61;;;19.77;60.73
70338;BME280;57757;53.198;19.646;2023-06-22T02:25:00;100288.86;;;19.76;60.80
70338;BME280;57757;53.198;19.646;2023-06-22T02:27:26;100290.06;;;19.77;60.81
70338;BME280;57757;53.198;19.646;2023-06-22T02:29:52;100293.23;;;19.77;60.92
70338;BME280;57757;53.198;19.646;2023-06-22T02:32:18;100295.25;;;19.78;60.91
70338;BME280;57757;53.198;19.646;2023-06-22T02:34:44;100297.36;;;19.79;60.99
70338;BME280;57757;53.198;19.646;2023-06-22T02:37:14;100300.14;;;19.77;61.00
70338;BME280;57757;53.198;19.646;2023-06-22T02:39:43;100305.73;;;19.74;60.88
70338;BME280;57757;53.198;19.646;2023-06-22T02:42:09;100304.71;;;19.71;61.01
70338;BME280;57757;53.198;19.646;2023-06-22T02:44:38;100308.84;;;19.70;61.09
70338;BME280;57757;53.198;19.646;2023-06-22T02:47:04;100309.98;;;19.68;61.04
70338;BME280;57757;53.198;19.646;2023-06-22T02:49:30;100314.03;;;19.68;61.14
70338;BME280;57757;53.198;19.646;2023-06-22T02:51:57;100315.29;;;19.68;61.13
70338;BME280;57757;53.198;19.646;2023-06-22T02:54:23;100315.92;;;19.66;61.05
70338;BME280;57757;53.198;19.646;2023-06-22T02:56:49;100316.75;;;19.67;61.20
70338;BME280;57757;53.198;19.646;2023-06-22T02:59:16;100322.17;;;19.68;61.26
70338;BME280;57757;53.198;19.646;2023-06-22T03:01:43;100317.85;;;19.67;61.13
70338;BME280;57757;53.198;19.646;2023-06-22T03:04:09;100318.16;;;19.64;61.27
70338;BME280;57757;53.198;19.646;2023-06-22T03:06:35;100318.23;;;19.63;61.26
70338;BME280;57757;53.198;19.646;2023-06-22T03:09:03;100322.46;;;19.57;61.32
70338;BME280;57757;53.198;19.646;2023-06-22T03:11:31;100323.48;;;19.51;61.13
70338;BME280;57757;53.198;19.646;2023-06-22T03:13:58;100325.59;;;19.42;61.14
70338;BME280;57757;53.198;19.646;2023-06-22T03:16:24;100334.80;;;19.35;61.23
70338;BME280;57757;53.198;19.646;2023-06-22T03:18:50;100339.14;;;19.30;61.29
70338;BME280;57757;53.198;19.646;2023-06-22T03:21:16;100342.10;;;19.22;61.32
70338;BME280;57757;53.198;19.646;2023-06-22T03:23:43;100340.55;;;19.18;61.41
70338;BME280;57757;53.198;19.646;2023-06-22T03:26:09;100343.64;;;19.16;61.53
70338;BME280;57757;53.198;19.646;2023-06-22T03:28:37;100347.27;;;19.17;61.59
70338;BME280;57757;53.198;19.646;2023-06-22T03:31:03;100348.64;;;19.19;61.63
70338;BME280;57757;53.198;19.646;2023-06-22T03:33:32;100351.46;;;19.15;61.56
70338;BME280;57757;53.198;19.646;2023-06-22T03:35:58;100351.89;;;19.11;61.65
70338;BME280;57757;53.198;19.646;2023-06-22T03:38:24;100356.15;;;19.10;61.76
70338;BME280;57757;53.198;19.646;2023-06-22T03:40:50;100357.37;;;19.07;61.60
70338;BME280;57757;53.198;19.646;2023-06-22T03:43:16;100354.04;;;19.04;61.59
70338;BME280;57757;53.198;19.646;2023-06-22T03:45:42;100353.83;;;19.01;61.88
70338;BME280;57757;53.198;19.646;2023-06-22T03:48:08;100353.04;;;19.00;61.93
70338;BME280;57757;53.198;19.646;2023-06-22T03:50:34;100349.55;;;18.99;61.84
70338;BME280;57757;53.198;19.646;2023-06-22T03:53:00;100349.77;;;19.01;61.92
70338;BME280;57757;53.198;19.646;2023-06-22T03:55:26;100351.09;;;19.03;61.88
70338;BME280;57757;53.198;19.646;2023-06-22T03:57:52;100356.80;;;19.05;61.95
70338;BME280;57757;53.198;19.646;2023-06-22T04:00:20;100359.44;;;19.05;61.80
70338;BME280;57757;53.198;19.646;2023-06-22T04:02:46;100360.90;;;19.04;61.75
70338;BME280;57757;53.198;19.646;2023-06-22T04:05:12;100359.77;;;19.05;61.86
70338;BME280;57757;53.198;19.646;2023-06-22T04:07:38;100357.70;;;19.07;61.92
70338;BME280;57757;53.198;19.646;2023-06-22T04:10:05;100363.70;;;19.11;61.85
70338;BME280;57757;53.198;19.646;2023-06-22T04:12:31;100364.70;;;19.12;61.85
70338;BME280;57757;53.198;19.646;2023-06-22T04:14:57;100364.77;;;19.14;61.78
70338;BME280;57757;53.198;19.646;2023-06-22T04:17:23;100367.33;;;19.16;61.60
70338;BME280;57757;53.198;19.646;2023-06-22T04:19:51;100368.48;;;19.17;61.78
70338;BME280;57757;53.198;19.646;2023-06-22T04:22:17;100368.19;;;19.19;61.83
70338;BME280;57757;53.198;19.646;2023-06-22T04:24:44;100369.67;;;19.21;61.73
70338;BME280;57757;53.198;19.646;2023-06-22T04:27:10;100365.63;;;19.24;61.63
70338;BME280;57757;53.198;19.646;2023-06-22T04:29:37;100360.60;;;19.25;61.85
70338;BME280;57757;53.198;19.646;2023-06-22T04:32:04;100363.16;;;19.29;61.80
70338;BME280;57757;53.198;19.646;2023-06-22T04:34:31;100364.49;;;19.37;61.89
70338;BME280;57757;53.198;19.646;2023-06-22T04:36:58;100363.14;;;19.43;61.71
70338;BME280;57757;53.198;19.646;2023-06-22T04:39:24;100363.86;;;19.49;61.76
70338;BME280;57757;53.198;19.646;2023-06-22T04:41:50;100365.77;;;19.55;61.74
70338;BME280;57757;53.198;19.646;2023-06-22T04:44:18;100373.52;;;19.62;61.86
70338;BME280;57757;53.198;19.646;2023-06-22T04:46:54;100382.55;;;19.67;61.60
70338;BME280;57757;53.198;19.646;2023-06-22T04:49:26;100383.42;;;19.73;61.64
70338;BME280;57757;53.198;19.646;2023-06-22T04:51:59;100386.50;;;19.78;61.56
70338;BME280;57757;53.198;19.646;2023-06-22T04:54:26;100388.04;;;19.82;61.47
70338;BME280;57757;53.198;19.646;2023-06-22T04:56:53;100389.98;;;19.85;61.51
70338;BME280;57757;53.198;19.646;2023-06-22T04:59:23;100396.29;;;19.89;61.38
70338;BME280;57757;53.198;19.646;2023-06-22T05:01:57;100397.05;;;19.88;61.22
70338;BME280;57757;53.198;19.646;2023-06-22T05:04:25;100395.47;;;19.88;61.29
70338;BME280;57757;53.198;19.646;2023-06-22T05:06:52;100388.18;;;19.89;61.38
70338;BME280;57757;53.198;19.646;2023-06-22T05:09:18;100385.69;;;19.92;61.34
70338;BME280;57757;53.198;19.646;2023-06-22T05:11:45;100389.02;;;19.98;61.37
70338;BME280;57757;53.198;19.646;2023-06-22T05:14:11;100394.93;;;20.09;61.57
70338;BME280;57757;53.198;19.646;2023-06-22T05:16:38;100394.50;;;20.19;61.49
70338;BME280;57757;53.198;19.646;2023-06-22T05:19:05;100398.00;;;20.28;61.35
70338;BME280;57757;53.198;19.646;2023-06-22T05:21:31;100398.72;;;20.31;61.28
70338;BME280;57757;53.198;19.646;2023-06-22T05:23:58;100401.83;;;20.35;61.17
70338;BME280;57757;53.198;19.646;2023-06-22T05:26:26;100403.23;;;20.41;61.21
70338;BME280;57757;53.198;19.646;2023-06-22T05:28:53;100404.77;;;20.47;61.27
70338;BME280;57757;53.198;19.646;2023-06-22T05:31:19;100397.88;;;20.57;61.11
70338;BME280;57757;53.198;19.646;2023-06-22T05:33:46;100396.98;;;20.63;61.09
70338;BME280;57757;53.198;19.646;2023-06-22T05:36:14;100398.13;;;20.67;61.01
70338;BME280;57757;53.198;19.646;2023-06-22T05:38:40;100397.33;;;20.71;60.98
70338;BME280;57757;53.198;19.646;2023-06-22T05:41:07;100398.09;;;20.76;61.03
70338;BME280;57757;53.198;19.646;2023-06-22T05:43:34;100396.43;;;20.83;60.97
70338;BME280;57757;53.198;19.646;2023-06-22T05:46:01;100396.46;;;20.85;60.82
70338;BME280;57757;53.198;19.646;2023-06-22T05:48:27;100396.89;;;20.89;60.83
70338;BME280;57757;53.198;19.646;2023-06-22T05:50:54;100402.80;;;20.91;60.82
70338;BME280;57757;53.198;19.646;2023-06-22T05:53:20;100410.57;;;20.91;60.78
70338;BME280;57757;53.198;19.646;2023-06-22T05:55:46;100416.48;;;20.93;60.72
70338;BME280;57757;53.198;19.646;2023-06-22T05:58:12;100415.00;;;20.94;60.65
70338;BME280;57757;53.198;19.646;2023-06-22T06:00:41;100417.98;;;20.94;60.65
70338;BME280;57757;53.198;19.646;2023-06-22T06:03:10;100416.29;;;20.96;60.69
70338;BME280;57757;53.198;19.646;2023-06-22T06:05:38;100420.39;;;21.04;60.76
70338;BME280;57757;53.198;19.646;2023-06-22T06:08:05;100427.23;;;21.16;60.76
70338;BME280;57757;53.198;19.646;2023-06-22T06:10:32;100428.23;;;21.25;60.61
70338;BME280;57757;53.198;19.646;2023-06-22T06:13:00;100433.15;;;21.28;60.41
70338;BME280;57757;53.198;19.646;2023-06-22T06:15:31;100434.02;;;21.34;60.56
70338;BME280;57757;53.198;19.646;2023-06-22T06:17:58;100437.27;;;21.41;60.47
70338;BME280;57757;53.198;19.646;2023-06-22T06:20:25;100439.63;;;21.49;60.45
70338;BME280;57757;53.198;19.646;2023-06-22T06:22:54;100440.55;;;21.51;60.12
70338;BME280;57757;53.198;19.646;2023-06-22T06:25:20;100441.80;;;21.54;60.24
70338;BME280;57757;53.198;19.646;2023-06-22T06:27:49;100441.64;;;21.56;60.17
70338;BME280;57757;53.198;19.646;2023-06-22T06:30:17;100438.07;;;21.54;60.00
70338;BME280;57757;53.198;19.646;2023-06-22T06:32:44;100435.04;;;21.52;59.90
70338;BME280;57757;53.198;19.646;2023-06-22T06:35:12;100435.01;;;21.55;60.22
70338;BME280;57757;53.198;19.646;2023-06-22T06:37:41;100435.00;;;21.60;60.20
70338;BME280;57757;53.198;19.646;2023-06-22T06:40:08;100436.73;;;21.69;60.20
70338;BME280;57757;53.198;19.646;2023-06-22T06:42:41;100442.85;;;21.75;60.16
70338;BME280;57757;53.198;19.646;2023-06-22T06:45:08;100444.20;;;21.73;59.97
70338;BME280;57757;53.198;19.646;2023-06-22T06:47:34;100442.04;;;21.74;59.99
70338;BME280;57757;53.198;19.646;2023-06-22T06:50:00;100442.03;;;21.72;59.85
70338;BME280;57757;53.198;19.646;2023-06-22T06:52:26;100446.59;;;21.70;60.07
70338;BME280;57757;53.198;19.646;2023-06-22T06:54:53;100453.27;;;21.78;60.28
70338;BME280;57757;53.198;19.646;2023-06-22T06:57:19;100453.40;;;21.93;60.44
70338;BME280;57757;53.198;19.646;2023-06-22T06:59:46;100446.53;;;22.11;60.25
70338;BME280;57757;53.198;19.646;2023-06-22T07:02:12;100438.23;;;22.23;60.07
70338;BME280;57757;53.198;19.646;2023-06-22T07:04:38;100437.19;;;22.33;60.08
70338;BME280;57757;53.198;19.646;2023-06-22T07:07:05;100431.66;;;22.42;59.89
70338;BME280;57757;53.198;19.646;2023-06-22T07:09:31;100429.77;;;22.49;59.84
70338;BME280;57757;53.198;19.646;2023-06-22T07:11:57;100430.95;;;22.55;59.80
70338;BME280;57757;53.198;19.646;2023-06-22T07:14:23;100429.38;;;22.70;59.87
70338;BME280;57757;53.198;19.646;2023-06-22T07:16:49;100433.29;;;22.88;59.92
70338;BME280;57757;53.198;19.646;2023-06-22T07:19:15;100432.63;;;23.06;59.73
70338;BME280;57757;53.198;19.646;2023-06-22T07:21:41;100429.41;;;23.19;59.57
70338;BME280;57757;53.198;19.646;2023-06-22T07:24:07;100433.05;;;23.35;59.48
70338;BME280;57757;53.198;19.646;2023-06-22T07:26:34;100431.20;;;23.49;59.42
70338;BME280;57757;53.198;19.646;2023-06-22T07:29:00;100439.39;;;23.58;59.23
70338;BME280;57757;53.198;19.646;2023-06-22T07:31:26;100440.72;;;23.64;59.07
70338;BME280;57757;53.198;19.646;2023-06-22T07:33:52;100442.90;;;23.75;59.10
70338;BME280;57757;53.198;19.646;2023-06-22T07:36:18;100448.09;;;23.81;58.88
70338;BME280;57757;53.198;19.646;2023-06-22T07:38:44;100454.20;;;23.90;58.81
70338;BME280;57757;53.198;19.646;2023-06-22T07:41:10;100460.79;;;23.99;58.63
70338;BME280;57757;53.198;19.646;2023-06-22T07:43:36;100455.11;;;24.16;58.68
70338;BME280;57757;53.198;19.646;2023-06-22T07:46:03;100446.36;;;24.31;58.47
70338;BME280;57757;53.198;19.646;2023-06-22T07:48:29;100449.37;;;24.47;58.34
70338;BME280;57757;53.198;19.646;2023-06-22T07:50:55;100451.89;;;24.58;58.18
70338;BME280;57757;53.198;19.646;2023-06-22T07:53:22;100461.34;;;24.71;58.09
70338;BME280;57757;53.198;19.646;2023-06-22T07:55:49;100465.85;;;24.82;58.15
70338;BME280;57757;53.198;19.646;2023-06-22T07:58:16;100462.93;;;24.90;57.90
70338;BME280;57757;53.198;19.646;2023-06-22T08:00:44;100465.48;;;24.98;57.76
70338;BME280;57757;53.198;19.646;2023-06-22T08:03:10;100473.02;;;25.06;57.62
70338;BME280;57757;53.198;19.646;2023-06-22T08:05:37;100472.93;;;25.14;57.58
70338;BME280;57757;53.198;19.646;2023-06-22T08:08:03;100473.20;;;25.22;57.51
70338;BME280;57757;53.198;19.646;2023-06-22T08:10:29;100473.10;;;25.28;57.50
70338;BME280;57757;53.198;19.646;2023-06-22T08:12:55;100472.20;;;25.32;57.20
70338;BME280;57757;53.198;19.646;2023-06-22T08:15:21;100475.41;;;25.34;57.04
70338;BME280;57757;53.198;19.646;2023-06-22T08:17:47;100472.08;;;25.34;56.90
70338;BME280;57757;53.198;19.646;2023-06-22T08:20:14;100472.56;;;25.43;57.15
70338;BME280;57757;53.198;19.646;2023-06-22T08:22:41;100471.29;;;25.43;56.73
70338;BME280;57757;53.198;19.646;2023-06-22T08:25:08;100467.15;;;25.35;56.60
70338;BME280;57757;53.198;19.646;2023-06-22T08:27:34;100468.36;;;25.24;56.52
70338;BME280;57757;53.198;19.646;2023-06-22T08:30:01;100475.05;;;25.14;56.37
70338;BME280;57757;53.198;19.646;2023-06-22T08:32:28;100474.14;;;25.19;56.71
70338;BME280;57757;53.198;19.646;2023-06-22T08:34:56;100473.19;;;25.33;56.63
70338;BME280;57757;53.198;19.646;2023-06-22T08:37:22;100479.64;;;25.37;56.36
70338;BME280;57757;53.198;19.646;2023-06-22T08:39:58;100478.33;;;25.38;56.32
70338;BME280;57757;53.198;19.646;2023-06-22T08:42:24;100479.52;;;25.43;55.96
70338;BME280;57757;53.198;19.646;2023-06-22T08:44:51;100476.52;;;25.42;55.94
70338;BME280;57757;53.198;19.646;2023-06-22T08:47:18;100482.57;;;25.47;55.83
70338;BME280;57757;53.198;19.646;2023-06-22T08:49:44;100484.77;;;25.40;55.62
70338;BME280;57757;53.198;19.646;2023-06-22T08:52:10;100487.09;;;25.39;55.76
70338;BME280;57757;53.198;19.646;2023-06-22T08:54:36;100489.73;;;25.49;55.48
70338;BME280;57757;53.198;19.646;2023-06-22T08:57:02;100489.60;;;25.59;55.30
70338;BME280;57757;53.198;19.646;2023-06-22T08:59:28;100482.94;;;25.67;55.00
70338;BME280;57757;53.198;19.646;2023-06-22T09:01:54;100478.58;;;25.74;55.05
70338;BME280;57757;53.198;19.646;2023-06-22T09:04:24;100480.42;;;25.91;55.02
70338;BME280;57757;53.198;19.646;2023-06-22T09:06:50;100482.91;;;26.03;54.80
70338;BME280;57757;53.198;19.646;2023-06-22T09:09:18;100484.98;;;26.08;54.74
70338;BME280;57757;53.198;19.646;2023-06-22T09:11:44;100489.60;;;26.20;54.60
70338;BME280;57757;53.198;19.646;2023-06-22T09:14:11;100490.66;;;26.28;54.20
70338;BME280;57757;53.198;19.646;2023-06-22T09:16:37;100487.77;;;26.35;54.16
70338;BME280;57757;53.198;19.646;2023-06-22T09:19:03;100486.74;;;26.49;54.15
70338;BME280;57757;53.198;19.646;2023-06-22T09:21:29;100490.16;;;26.43;53.37
70338;BME280;57757;53.198;19.646;2023-06-22T09:23:56;100491.10;;;26.32;53.46
70338;BME280;57757;53.198;19.646;2023-06-22T09:26:22;100484.48;;;26.32;53.35
70338;BME280;57757;53.198;19.646;2023-06-22T09:28:49;100475.95;;;26.34;53.16
70338;BME280;57757;53.198;19.646;2023-06-22T09:31:15;100479.05;;;26.37;53.11
70338;BME280;57757;53.198;19.646;2023-06-22T09:33:43;100472.98;;;26.45;53.04
70338;BME280;57757;53.198;19.646;2023-06-22T09:36:09;100469.20;;;26.56;52.95
70338;BME280;57757;53.198;19.646;2023-06-22T09:38:36;100468.82;;;26.77;52.94
70338;BME280;57757;53.198;19.646;2023-06-22T09:41:02;100472.20;;;26.98;52.52
70338;BME280;57757;53.198;19.646;2023-06-22T09:43:29;100465.47;;;27.11;52.30
70338;BME280;57757;53.198;19.646;2023-06-22T09:45:55;100465.89;;;27.31;52.17
70338;BME280;57757;53.198;19.646;2023-06-22T09:48:22;100467.30;;;27.41;52.00
70338;BME280;57757;53.198;19.646;2023-06-22T09:50:48;100466.60;;;27.61;51.93
70338;BME280;57757;53.198;19.646;2023-06-22T09:53:14;100462.52;;;27.92;51.87
70338;BME280;57757;53.198;19.646;2023-06-22T09:55:40;100457.02;;;28.21;51.38
70338;BME280;57757;53.198;19.646;2023-06-22T09:58:06;100460.86;;;28.29;50.64
70338;BME280;57757;53.198;19.646;2023-06-22T10:00:32;100460.16;;;28.29;50.69
70338;BME280;57757;53.198;19.646;2023-06-22T10:02:58;100463.20;;;28.35;50.72
70338;BME280;57757;53.198;19.646;2023-06-22T10:05:27;100464.11;;;28.52;50.84
70338;BME280;57757;53.198;19.646;2023-06-22T10:07:54;100466.02;;;28.73;50.70
70338;BME280;57757;53.198;19.646;2023-06-22T10:10:20;100453.77;;;28.83;50.32
70338;BME280;57757;53.198;19.646;2023-06-22T10:12:48;100452.17;;;28.87;50.21
70338;BME280;57757;53.198;19.646;2023-06-22T10:15:15;100451.09;;;28.96;50.10
70338;BME280;57757;53.198;19.646;2023-06-22T10:17:42;100448.31;;;29.07;49.73
70338;BME280;57757;53.198;19.646;2023-06-22T10:20:08;100445.20;;;28.91;49.23
70338;BME280;57757;53.198;19.646;2023-06-22T10:22:43;100449.98;;;28.68;49.07
70338;BME280;57757;53.198;19.646;2023-06-22T10:25:12;100444.04;;;28.65;49.41
70338;BME280;57757;53.198;19.646;2023-06-22T10:27:38;100454.23;;;28.88;49.53
70338;BME280;57757;53.198;19.646;2023-06-22T10:30:09;100456.39;;;29.25;49.08
70338;BME280;57757;53.198;19.646;2023-06-22T10:32:39;100451.77;;;29.79;49.15
70338;BME280;57757;53.198;19.646;2023-06-22T10:35:05;100448.30;;;30.24;48.48
70338;BME280;57757;53.198;19.646;2023-06-22T10:37:32;100446.25;;;30.60;47.93
70338;BME280;57757;53.198;19.646;2023-06-22T10:39:58;100448.65;;;30.81;47.02
70338;BME280;57757;53.198;19.646;2023-06-22T10:42:24;100447.15;;;30.89;46.91
70338;BME280;57757;53.198;19.646;2023-06-22T10:44:50;100451.41;;;31.05;47.00
70338;BME280;57757;53.198;19.646;2023-06-22T10:47:16;100456.09;;;31.12;46.41
70338;BME280;57757;53.198;19.646;2023-06-22T10:49:42;100455.84;;;31.09;46.17
70338;BME280;57757;53.198;19.646;2023-06-22T10:52:08;100453.76;;;31.25;46.21
70338;BME280;57757;53.198;19.646;2023-06-22T10:54:35;100447.18;;;31.63;46.42
70338;BME280;57757;53.198;19.646;2023-06-22T10:57:02;100445.92;;;31.86;45.21
70338;BME280;57757;53.198;19.646;2023-06-22T10:59:29;100441.68;;;31.94;44.60
70338;BME280;57757;53.198;19.646;2023-06-22T11:01:56;100438.52;;;32.18;44.99
70338;BME280;57757;53.198;19.646;2023-06-22T11:04:23;100434.88;;;32.65;45.10
70338;BME280;57757;53.198;19.646;2023-06-22T11:06:49;100437.37;;;33.14;44.92
70338;BME280;57757;53.198;19.646;2023-06-22T11:09:16;100446.31;;;33.62;44.53
70338;BME280;57757;53.198;19.646;2023-06-22T11:11:53;100452.41;;;33.49;43.38
70338;BME280;57757;53.198;19.646;2023-06-22T11:14:19;100447.61;;;33.36;43.33
70338;BME280;57757;53.198;19.646;2023-06-22T11:16:48;100448.40;;;33.56;43.57
70338;BME280;57757;53.198;19.646;2023-06-22T11:19:14;100448.36;;;33.87;43.05
70338;BME280;57757;53.198;19.646;2023-06-22T11:21:41;100441.41;;;34.03;42.46
70338;BME280;57757;53.198;19.646;2023-06-22T11:24:07;100436.09;;;34.07;42.24
70338;BME280;57757;53.198;19.646;2023-06-22T11:26:33;100431.23;;;34.26;42.31
70338;BME280;57757;53.198;19.646;2023-06-22T11:28:59;100423.58;;;34.70;42.14
70338;BME280;57757;53.198;19.646;2023-06-22T11:31:25;100425.27;;;35.24;41.64
70338;BME280;57757;53.198;19.646;2023-06-22T11:33:53;100424.14;;;35.45;40.89
70338;BME280;57757;53.198;19.646;2023-06-22T11:36:19;100420.09;;;35.73;41.11
70338;BME280;57757;53.198;19.646;2023-06-22T11:38:45;100417.98;;;36.12;40.80
70338;BME280;57757;53.198;19.646;2023-06-22T11:41:11;100416.83;;;36.41;40.15
70338;BME280;57757;53.198;19.646;2023-06-22T11:43:37;100419.55;;;36.70;39.87
70338;BME280;57757;53.198;19.646;2023-06-22T11:46:03;100417.54;;;37.03;39.42
70338;BME280;57757;53.198;19.646;2023-06-22T11:48:30;100415.63;;;37.14;38.85
70338;BME280;57757;53.198;19.646;2023-06-22T11:50:56;100416.14;;;37.22;38.58
70338;BME280;57757;53.198;19.646;2023-06-22T11:53:26;100419.95;;;37.45;38.42
70338;BME280;57757;53.198;19.646;2023-06-22T11:55:52;100425.15;;;37.70;38.22
70338;BME280;57757;53.198;19.646;2023-06-22T11:58:20;100425.08;;;37.77;37.78
70338;BME280;57757;53.198;19.646;2023-06-22T12:00:49;100425.27;;;37.70;37.23
70338;BME280;57757;53.198;19.646;2023-06-22T12:03:18;100420.49;;;37.85;37.35
70338;BME280;57757;53.198;19.646;2023-06-22T12:05:45;100418.92;;;38.18;37.01
70338;BME280;57757;53.198;19.646;2023-06-22T12:08:11;100412.69;;;38.51;36.67
70338;BME280;57757;53.198;19.646;2023-06-22T12:10:38;100411.40;;;38.82;36.35
70338;BME280;57757;53.198;19.646;2023-06-22T12:13:04;100415.39;;;38.96;36.13
70338;BME280;57757;53.198;19.646;2023-06-22T12:15:30;100417.63;;;39.17;35.85
70338;BME280;57757;53.198;19.646;2023-06-22T12:17:56;100423.98;;;39.47;35.56
70338;BME280;57757;53.198;19.646;2023-06-22T12:20:22;100426.55;;;39.74;35.14
70338;BME280;57757;53.198;19.646;2023-06-22T12:22:49;100423.34;;;39.96;34.83
70338;BME280;57757;53.198;19.646;2023-06-22T12:25:17;100422.99;;;40.32;34.68
70338;BME280;57757;53.198;19.646;2023-06-22T12:27:43;100424.56;;;40.40;34.04
70338;BME280;57757;53.198;19.646;2023-06-22T12:30:09;100424.16;;;40.29;33.68
70338;BME280;57757;53.198;19.646;2023-06-22T12:32:35;100423.36;;;40.25;33.52
70338;BME280;57757;53.198;19.646;2023-06-22T12:35:01;100418.60;;;40.35;33.22
70338;BME280;57757;53.198;19.646;2023-06-22T12:37:27;100417.70;;;40.37;33.13
70338;BME280;57757;53.198;19.646;2023-06-22T12:39:54;100418.36;;;40.71;32.92
70338;BME280;57757;53.198;19.646;2023-06-22T12:42:20;100423.90;;;41.06;32.62
70338;BME280;57757;53.198;19.646;2023-06-22T12:44:46;100420.11;;;41.30;32.02
70338;BME280;57757;53.198;19.646;2023-06-22T12:47:13;100422.16;;;41.49;31.44
70338;BME280;57757;53.198;19.646;2023-06-22T12:49:39;100420.41;;;41.36;30.96